Enter the Airport ICAO Code

Search by Airport or City

Current Weather

LELC | Murcia–San Javier Airport

Murcia, Region of Murcia, Spain

Last Update 6 Minutes Ago

Sky with Few Clouds

Temperature of 29 ºC

Moderate Winds from NorthEast

Temperature

29 ºC

Dew Point Temperature

21 ºC

Relative Humidity

62.24 %

Wind Direction

NorthEast (050º, Ranging from 010º to 090º)

Wind Velocity

24 km/h (13 kt)

Gusts

None

Visibility

Greater than 10 Kilometers

Sea Level Pressure

1018 hPa (Hectopascals)

Layers of Clouds

5% to 30% of Sky Covered from 914 mts (3000 ft) Above Ground Level.

METAR LELC 131130Z 05013KT 010V090 9999 FEW030 29/21 Q1018 NOSIG

Weather Forecast

LELC | Murcia–San Javier Airport

Murcia, Region of Murcia, Spain

Forecast valid for the next 24 Hours

From now on it is expected:

Clear Sky

Moderate Winds from NorthEast

In 7 to 10 hours it is expected the begining of:

Light to Moderate Winds from North

In 18 to 20 hours it is expected the begining of:

Moderate Winds from NorthEast

Maximum Temperature

30 ºC in 0 Hours

Minimum Temperature

23 ºC in 17 Hours

TAF LELC 131100Z 1312/1412 06012KT CAVOK TX30/1312Z TN23/1405Z BECMG 1319/1322 36006KT BECMG 1406/1408 06010KT